Terminal Aerodrome Forecast
Issued by NWS

Home | Current Version | Previous Version | Text Only | Print | Product List | Glossary On
Versions: 1 2 3 4 5 6 7 8 9 10 11 12
983
FTPA31 PHFO 082329
TAFHJH
TAF
PHJH 082329Z 0900/0924 VRB05KT P6SM -SHRA SCT015 BKN025 BKN050
      TEMPO 0900/0902 5SM SHRA BR BKN015 BKN025 OVC050
     FM091200 VRB05KT P6SM VCSH SCT015 BKN050=

USA.gov is the U.S. government's official web portal to all federal, state and local government web resources and services.